Online since October of 2007


Active alerts

Marquette
  Details for Marquette Winter Storm Warning

Bigbaywx more information Bigbaywx


mount mesnard more information Mount Mesnard


visit our other weather sites:

Template documentation
and downloads

And another site


CBI


nearby metar reports

   
KSAW - Sawyer, Michigan
updated: Nov 11 2019 5:47 pm
mostly cloudy  
mostly cloudy  
   wind: nnw 16.1 mph
wind: nnw 16.1 mph
temperature: 14°F
wind chill: -2.2°F
dew point: 1.4°F
humidity: 57%
barometer: 30.27 inHg
clouds: mostly cloudy
visibility: 10 mi
cloud details: mostly cloudy 2134 m
KSAW 112247Z 33014KT 10SM BKN070 M10/M17 A3027
KESC - Escanaba, Michigan
updated: Nov 11 2019 5:56 pm
overcast  
overcast  
   wind: nw 8.1 mph<br />Gust to 8.1 mph
wind: nw 8.1 mph
Gust to 8.1 mph
temperature: 17.6°F
wind chill: 6.8°F
dew point: 3.2°F
humidity: 53%
barometer: 30.31 inHg
clouds: overcast
visibility: 10 mi
cloud details: overcast 2286 m
KESC 112256Z AUTO 32007G16KT 10SM OVC075 M08/M16 A3031 RMK AO2 SLP279 T10781161 FZRANO
KIMT - Iron Mountain, MI
updated: Nov 11 2019 6:09 pm
light snow, mostly cloudy  
light snow, mostly cloudy  
   wind: nnw 13.8 mph
wind: nnw 13.8 mph
temperature: 14°F
wind chill: -0.4°F
dew point: 5°F
humidity: 67%
barometer: 30.3 inHg
clouds: mostly cloudy
visibility: 3 mi
cloud details: mostly cloudy 1128 m,
mostly cloudy 3658 m
KIMT 112309Z AUTO 33012KT 3SM -SN BKN037 BKN120 M10/M15 A3030 RMK AO2 SNB2257 P0000 T11001150
KGRB - Green Bay, WI
updated: Nov 11 2019 5:53 pm
mostly cloudy  
mostly cloudy  
   wind: nw 11.5 mph
wind: nw 11.5 mph
temperature: 19.4°F
wind chill: 6.8°F
dew point: 6.8°F
humidity: 58%
barometer: 30.33 inHg
clouds: mostly cloudy
visibility: 10 mi
cloud details: mostly cloudy 1829 m
KGRB 112253Z 31010KT 10SM BKN060 M07/M14 A3033 RMK AO2 SLP283 T10721144 $
KDET - Detroit, MI
updated: Nov 11 2019 6:38 pm
light snow, mist, overcast  
light snow, mist, overcast  
   wind: north 8.1 mph
wind: north 8.1 mph
temperature: 28.4°F
wind chill: 19.4°F
dew point: 28.4°F
humidity: 100%
barometer: 30.07 inHg
clouds: overcast
visibility: 1 mi
cloud details: few clouds 183 m,
overcast 427 m
KDET 112338Z 36007KT 1SM -SN BR FEW006 OVC014 M02/M02 A3007 RMK AO2 P0001 T10171022 $
 

script developed by  Saratoga-weather.org adapted for the template by  Weerstation Leuven

you find our weather info also at:

Weather Underground

midwestern weather network

WeatherlinkIP

Citizen Weather Observer Program (CWOP)

equipment we use:

weather-station
Davis VP2

weather-program
Davis Weatherlink.Com

Davis VP2

Davis Weatherlink.Com